createdAt,value
2017-10-21T00:00:47.539Z,54
2017-10-21T00:01:49.015Z,53.9
2017-10-21T00:02:51.180Z,54.2
2017-10-21T00:03:53.002Z,54.2
2017-10-21T00:04:54.456Z,53.9
2017-10-21T00:05:56.621Z,53.9
2017-10-21T00:06:58.439Z,54
2017-10-21T00:08:00.260Z,53.9
2017-10-21T00:09:02.422Z,54.2
2017-10-21T00:10:03.878Z,53.9
2017-10-21T00:11:05.384Z,53.8
2017-10-21T00:12:07.206Z,54
2017-10-21T00:13:09.023Z,54
2017-10-21T00:14:10.849Z,53.9
2017-10-21T00:15:12.662Z,53.9
2017-10-21T00:16:14.482Z,54.2
2017-10-21T00:17:16.301Z,54.1
2017-10-21T00:18:18.122Z,54
2017-10-21T00:19:19.942Z,53.9
2017-10-21T00:20:21.766Z,53.9
2017-10-21T00:21:22.901Z,54.2
2017-10-21T00:22:24.719Z,53.9
2017-10-21T00:23:26.883Z,53.9
2017-10-21T00:24:28.699Z,53.9
2017-10-21T00:25:30.863Z,54
2017-10-21T00:26:32.684Z,54.2
2017-10-21T00:27:34.849Z,54.3
2017-10-21T00:28:36.310Z,54.2
2017-10-21T00:29:38.467Z,54.1
2017-10-21T00:30:40.656Z,54.2
2017-10-21T00:31:42.478Z,53.9
2017-10-21T00:32:43.931Z,53.9
2017-10-21T00:33:45.730Z,53.9
2017-10-21T00:34:47.542Z,53.9
2017-10-21T00:35:49.005Z,54.5
2017-10-21T00:36:50.828Z,53.9
2017-10-21T00:37:52.993Z,53.9
2017-10-21T00:38:54.860Z,53.9
2017-10-21T00:39:56.678Z,53.9
2017-10-21T00:40:58.497Z,54
2017-10-21T00:42:00.319Z,54.1
2017-10-21T00:43:02.480Z,53.9
2017-10-21T00:44:03.956Z,54.5
2017-10-21T00:45:05.758Z,53.9
2017-10-21T00:46:07.924Z,53.9
2017-10-21T00:47:10.090Z,54
2017-10-21T00:48:11.913Z,54
2017-10-21T00:49:13.391Z,53.9
2017-10-21T00:50:15.558Z,54.1
2017-10-21T00:51:17.721Z,53.9
2017-10-21T00:52:19.178Z,53.9
2017-10-21T00:53:20.979Z,54.1
2017-10-21T00:54:23.144Z,54.1
2017-10-21T00:55:24.621Z,54
2017-10-21T00:56:26.788Z,54.1
2017-10-21T00:57:28.620Z,53.9
2017-10-21T00:58:30.459Z,53.9
2017-10-21T00:59:32.269Z,53.9
2017-10-21T01:00:33.750Z,53.9
2017-10-21T01:01:34.862Z,53.9
2017-10-21T01:02:36.316Z,54.3
2017-10-21T01:03:38.480Z,53.9
2017-10-21T01:04:40.647Z,53.9
2017-10-21T01:05:42.809Z,54
2017-10-21T01:06:44.973Z,53.9
2017-10-21T01:07:46.792Z,54.1
2017-10-21T01:08:48.286Z,53.9
2017-10-21T01:09:50.453Z,53.9
2017-10-21T01:10:52.620Z,53.9
2017-10-21T01:11:54.423Z,53.9
2017-10-21T01:12:56.238Z,53.8
2017-10-21T01:13:57.693Z,53.8
2017-10-21T01:14:59.515Z,54
2017-10-21T01:16:00.990Z,53.9
2017-10-21T01:17:03.156Z,53.9
2017-10-21T01:18:04.609Z,54.4
2017-10-21T01:19:06.414Z,53.9
2017-10-21T01:20:07.869Z,54.2
2017-10-21T01:21:09.668Z,54.2
2017-10-21T01:22:11.129Z,54.1
2017-10-21T01:23:12.604Z,53.9
2017-10-21T01:24:14.769Z,54.1
2017-10-21T01:25:16.570Z,53.9
2017-10-21T01:26:18.747Z,53.9
2017-10-21T01:27:20.565Z,54.1
2017-10-21T01:28:22.735Z,53.9
2017-10-21T01:29:24.900Z,54
2017-10-21T01:30:26.722Z,54
2017-10-21T01:31:27.833Z,53.8
2017-10-21T01:32:29.312Z,53.8
2017-10-21T01:33:31.489Z,53.8
2017-10-21T01:34:32.934Z,53.9
2017-10-21T01:35:34.733Z,54.1
2017-10-21T01:36:35.867Z,53.9
2017-10-21T01:37:38.035Z,53.9
2017-10-21T01:38:39.851Z,54
2017-10-21T01:39:41.329Z,54
2017-10-21T01:40:43.495Z,53.8
2017-10-21T01:41:45.318Z,54.2
2017-10-21T01:42:47.489Z,54
2017-10-21T01:43:49.310Z,53.8
2017-10-21T01:44:51.131Z,54.1
2017-10-21T01:45:53.293Z,54
2017-10-21T01:46:54.754Z,53.9
2017-10-21T01:47:56.921Z,54.3
2017-10-21T01:48:58.428Z,53.7
2017-10-21T01:50:00.253Z,53.9
2017-10-21T01:51:02.416Z,54
2017-10-21T01:52:03.893Z,53.8
2017-10-21T01:53:05.370Z,53.9
2017-10-21T01:54:07.189Z,53.7
2017-10-21T01:55:09.020Z,53.8
2017-10-21T01:56:10.494Z,53.9
2017-10-21T01:57:11.611Z,54.1
2017-10-21T01:58:13.432Z,53.8
2017-10-21T01:59:15.254Z,53.9
2017-10-21T02:00:17.077Z,53.9
2017-10-21T02:01:19.248Z,53.8
2017-10-21T02:02:21.409Z,54
2017-10-21T02:03:22.863Z,54.1
2017-10-21T02:04:24.316Z,53.9
2017-10-21T02:05:26.482Z,53.9
2017-10-21T02:06:28.303Z,53.9
2017-10-21T02:07:29.790Z,53.9
2017-10-21T02:08:31.268Z,54.1
2017-10-21T02:09:33.088Z,53.9
2017-10-21T02:10:34.909Z,54
2017-10-21T02:11:36.363Z,53.9
2017-10-21T02:12:38.182Z,54.1
2017-10-21T02:13:40.007Z,53.7
2017-10-21T02:14:42.172Z,53.7
2017-10-21T02:15:43.646Z,53.7
2017-10-21T02:16:45.467Z,53.9
2017-10-21T02:17:47.629Z,53.9
2017-10-21T02:18:49.796Z,53.9
2017-10-21T02:19:52.011Z,53.9
2017-10-21T02:20:53.831Z,53.7
2017-10-21T02:21:55.649Z,53.9
2017-10-21T02:22:57.103Z,53.9
2017-10-21T02:23:59.280Z,53.7
2017-10-21T02:25:01.096Z,53.9
2017-10-21T02:26:03.261Z,53.6
2017-10-21T02:27:05.083Z,53.7
2017-10-21T02:28:07.246Z,53.7
2017-10-21T02:29:09.413Z,53.9
2017-10-21T02:30:11.578Z,53.8
2017-10-21T02:31:13.382Z,53.9
2017-10-21T02:32:15.203Z,53.8
2017-10-21T02:33:17.025Z,53.9
2017-10-21T02:34:18.824Z,54
2017-10-21T02:35:19.957Z,53.9
2017-10-21T02:36:22.158Z,53.9
2017-10-21T02:37:23.614Z,53.9
2017-10-21T02:38:25.098Z,54.2
2017-10-21T02:39:26.918Z,53.7
2017-10-21T02:40:28.740Z,53.9
2017-10-21T02:41:30.541Z,54.1
2017-10-21T02:42:31.998Z,53.8
2017-10-21T02:43:33.816Z,54.2
2017-10-21T02:44:35.980Z,54.1
2017-10-21T02:45:38.160Z,54.2
2017-10-21T02:46:39.618Z,53.8
2017-10-21T02:47:41.422Z,53.9
2017-10-21T02:48:43.218Z,53.9
2017-10-21T02:49:45.037Z,53.8
2017-10-21T02:50:47.208Z,53.7
2017-10-21T02:51:49.368Z,53.8
2017-10-21T02:52:51.191Z,53.6
2017-10-21T02:53:52.651Z,53.7
2017-10-21T02:54:54.815Z,53.9
2017-10-21T02:55:56.640Z,53.8
2017-10-21T02:56:58.804Z,54.2
2017-10-21T02:58:00.622Z,53.9
2017-10-21T02:59:02.080Z,54
2017-10-21T03:00:04.246Z,53.9
2017-10-21T03:01:06.412Z,53.9
2017-10-21T03:02:07.545Z,54
2017-10-21T03:03:08.997Z,54
2017-10-21T03:04:10.826Z,53.8
2017-10-21T03:05:12.640Z,53.9
2017-10-21T03:06:14.119Z,53.9
2017-10-21T03:07:15.938Z,54
2017-10-21T03:08:17.413Z,53.9
2017-10-21T03:09:19.624Z,53.9
2017-10-21T03:10:21.135Z,53.9
2017-10-21T03:11:23.300Z,53.9
2017-10-21T03:12:25.468Z,53.7
2017-10-21T03:13:27.289Z,53.9
2017-10-21T03:14:29.115Z,54
2017-10-21T03:15:31.276Z,53.9
2017-10-21T03:16:33.100Z,53.8
2017-10-21T03:17:34.898Z,53.9
2017-10-21T03:18:36.373Z,54
2017-10-21T03:19:38.173Z,53.9
2017-10-21T03:20:40.007Z,53.9
2017-10-21T03:21:41.806Z,53.9
2017-10-21T03:22:43.644Z,53.9
2017-10-21T03:23:45.443Z,54
2017-10-21T03:24:46.903Z,53.9
2017-10-21T03:25:48.013Z,53.9
2017-10-21T03:26:49.494Z,54.1
2017-10-21T03:27:51.679Z,53.7
2017-10-21T03:28:53.854Z,53.7
2017-10-21T03:29:55.674Z,53.7
2017-10-21T03:30:57.496Z,53.8
2017-10-21T03:31:58.980Z,53.7
2017-10-21T03:33:01.145Z,53.8
2017-10-21T03:34:02.970Z,53.7
2017-10-21T03:35:05.159Z,53.9
2017-10-21T03:36:06.615Z,53.8
2017-10-21T03:37:08.078Z,53.9
2017-10-21T03:38:10.236Z,53.8
2017-10-21T03:39:11.693Z,53.9
2017-10-21T03:40:13.518Z,53.7
2017-10-21T03:41:15.340Z,54
2017-10-21T03:42:17.163Z,53.8
2017-10-21T03:43:18.985Z,53.9
2017-10-21T03:44:20.806Z,54
2017-10-21T03:45:22.263Z,53.8
2017-10-21T03:46:24.084Z,53.7
2017-10-21T03:47:26.254Z,53.9
2017-10-21T03:48:28.448Z,54
2017-10-21T03:49:29.931Z,53.8
2017-10-21T03:50:32.091Z,54
2017-10-21T03:51:34.262Z,54
2017-10-21T03:52:36.058Z,54.1
2017-10-21T03:53:37.512Z,54.2
2017-10-21T03:54:39.317Z,54
2017-10-21T03:55:41.482Z,54
2017-10-21T03:56:42.941Z,53.9
2017-10-21T03:57:44.063Z,53.8
2017-10-21T03:58:45.544Z,53.9
2017-10-21T03:59:47.005Z,53.9
2017-10-21T04:00:49.165Z,54
2017-10-21T04:01:51.002Z,53.9
2017-10-21T04:02:52.823Z,53.9
2017-10-21T04:03:54.627Z,53.9
2017-10-21T04:04:56.427Z,54
2017-10-21T04:05:57.566Z,53.9
2017-10-21T04:06:59.016Z,54
2017-10-21T04:08:00.129Z,54.1
2017-10-21T04:09:01.584Z,53.8
2017-10-21T04:10:02.715Z,53.8
2017-10-21T04:11:03.851Z,53.8
2017-10-21T04:12:05.307Z,53.9
2017-10-21T04:13:06.763Z,53.8
2017-10-21T04:14:08.240Z,54.2
2017-10-21T04:15:09.694Z,53.9
2017-10-21T04:16:11.516Z,53.9
2017-10-21T04:17:13.680Z,53.9
2017-10-21T04:18:15.847Z,54.1
2017-10-21T04:19:17.647Z,53.9
2017-10-21T04:20:19.471Z,53.9
2017-10-21T04:21:21.634Z,54
2017-10-21T04:22:23.799Z,53.9
2017-10-21T04:23:25.968Z,54
2017-10-21T04:24:28.152Z,53.8
2017-10-21T04:25:29.605Z,53.9
2017-10-21T04:26:31.427Z,53.8
2017-10-21T04:27:33.258Z,53.8
2017-10-21T04:28:35.075Z,53.9
2017-10-21T04:29:37.241Z,53.9
2017-10-21T04:30:39.406Z,54.2
2017-10-21T04:31:41.225Z,54.1
2017-10-21T04:32:43.389Z,53.8
2017-10-21T04:33:45.556Z,53.8
2017-10-21T04:34:47.376Z,53.8
2017-10-21T04:35:49.545Z,53.9
2017-10-21T04:36:50.680Z,53.9
2017-10-21T04:37:52.513Z,54
2017-10-21T04:38:53.622Z,53.9
2017-10-21T04:39:55.443Z,53.9
2017-10-21T04:40:57.608Z,53.7
2017-10-21T04:41:59.433Z,53.8
2017-10-21T04:43:01.252Z,53.7
2017-10-21T04:44:03.076Z,53.8
2017-10-21T04:45:05.246Z,53.7
2017-10-21T04:46:07.040Z,54.1
2017-10-21T04:47:08.869Z,53.9
2017-10-21T04:48:11.053Z,53.8
2017-10-21T04:49:13.223Z,53.9
2017-10-21T04:50:15.036Z,54
2017-10-21T04:51:16.865Z,53.8
2017-10-21T04:52:18.667Z,54.2
2017-10-21T04:53:20.468Z,54.2
2017-10-21T04:54:22.288Z,53.8
2017-10-21T04:55:24.453Z,53.8
2017-10-21T04:56:26.619Z,54
2017-10-21T04:57:28.819Z,54
2017-10-21T04:58:30.988Z,53.9
2017-10-21T04:59:32.462Z,53.9
2017-10-21T05:00:33.921Z,53.7
2017-10-21T05:01:35.767Z,54
2017-10-21T05:02:37.214Z,54.1
2017-10-21T05:03:39.378Z,53.9
2017-10-21T05:04:41.545Z,53.8
2017-10-21T05:05:43.710Z,54.1
2017-10-21T05:06:45.512Z,53.9
2017-10-21T05:07:47.348Z,53.7
2017-10-21T05:08:49.509Z,53.9
2017-10-21T05:09:51.311Z,53.7
2017-10-21T05:10:53.127Z,53.8
2017-10-21T05:11:54.262Z,53.8
2017-10-21T05:12:56.430Z,53.9
2017-10-21T05:13:57.546Z,53.6
2017-10-21T05:14:59.364Z,54
2017-10-21T05:16:01.532Z,54.2
2017-10-21T05:17:03.697Z,53.7
2017-10-21T05:18:05.500Z,53.8
2017-10-21T05:19:07.326Z,53.9
2017-10-21T05:20:09.141Z,53.9
2017-10-21T05:21:10.599Z,53.9
2017-10-21T05:22:12.077Z,53.7
2017-10-21T05:23:13.532Z,53.8
2017-10-21T05:24:15.013Z,53.9
2017-10-21T05:25:16.494Z,54.1
2017-10-21T05:26:17.600Z,53.9
2017-10-21T05:27:19.771Z,53.9
2017-10-21T05:28:21.227Z,53.7
2017-10-21T05:29:23.049Z,53.8
2017-10-21T05:30:24.527Z,53.7
2017-10-21T05:31:26.705Z,53.7
2017-10-21T05:32:28.505Z,53.7
2017-10-21T05:33:29.964Z,53.9
2017-10-21T05:34:31.442Z,54.1
2017-10-21T05:35:33.247Z,53.7
2017-10-21T05:36:35.411Z,54.4
2017-10-21T05:37:37.576Z,53.8
2017-10-21T05:38:39.738Z,53.7
2017-10-21T05:39:41.562Z,53.8
2017-10-21T05:40:43.383Z,54
2017-10-21T05:41:45.207Z,54.1
2017-10-21T05:42:47.035Z,53.8
2017-10-21T05:43:48.852Z,54.2
2017-10-21T05:44:50.675Z,53.9
2017-10-21T05:45:51.783Z,54.1
2017-10-21T05:46:53.260Z,54
2017-10-21T05:47:55.085Z,54
2017-10-21T05:48:56.906Z,54
2017-10-21T05:49:58.708Z,54.1
2017-10-21T05:51:00.532Z,53.6
2017-10-21T05:52:02.696Z,54
2017-10-21T05:53:04.171Z,53.9
2017-10-21T05:54:05.650Z,53.9
2017-10-21T05:55:07.472Z,54.1
2017-10-21T05:56:08.949Z,54
2017-10-21T05:57:10.770Z,53.7
2017-10-21T05:58:12.228Z,54.1
2017-10-21T05:59:14.398Z,53.9
2017-10-21T06:00:16.568Z,53.9
2017-10-21T06:01:18.389Z,53.9
2017-10-21T06:02:20.210Z,53.9
2017-10-21T06:03:21.687Z,54
2017-10-21T06:04:23.871Z,53.8
2017-10-21T06:05:25.671Z,54.2
2017-10-21T06:06:27.498Z,53.9
2017-10-21T06:07:28.970Z,54
2017-10-21T06:08:30.795Z,54
2017-10-21T06:09:32.273Z,54.1
2017-10-21T06:10:34.093Z,54
2017-10-21T06:11:35.549Z,54.2
2017-10-21T06:12:37.366Z,53.8
2017-10-21T06:13:39.188Z,54
2017-10-21T06:14:40.666Z,53.9
2017-10-21T06:15:42.492Z,54.2
2017-10-21T06:16:43.945Z,53.9
2017-10-21T06:17:46.114Z,53.7
2017-10-21T06:18:47.248Z,53.7
2017-10-21T06:19:49.072Z,53.9
2017-10-21T06:20:50.892Z,53.9
2017-10-21T06:21:52.716Z,54.3
2017-10-21T06:22:53.850Z,53.8
2017-10-21T06:23:55.654Z,53.8
2017-10-21T06:24:57.822Z,53.9
2017-10-21T06:25:59.648Z,53.8
2017-10-21T06:27:01.475Z,54.2
2017-10-21T06:28:03.639Z,54.1
2017-10-21T06:29:05.469Z,54
2017-10-21T06:30:07.635Z,53.9
2017-10-21T06:31:09.803Z,53.9
2017-10-21T06:32:11.974Z,53.8
2017-10-21T06:33:13.448Z,53.9
2017-10-21T06:34:14.907Z,53.6
2017-10-21T06:35:17.092Z,53.7
2017-10-21T06:36:18.231Z,53.7
2017-10-21T06:37:20.052Z,53.9
2017-10-21T06:38:21.512Z,53.7
2017-10-21T06:39:23.683Z,53.8
2017-10-21T06:40:25.851Z,53.8
2017-10-21T06:41:27.675Z,53.9
2017-10-21T06:42:29.841Z,53.9
2017-10-21T06:43:31.650Z,53.9
2017-10-21T06:44:33.453Z,53.6
2017-10-21T06:45:35.257Z,53.9
2017-10-21T06:46:36.738Z,53.8
2017-10-21T06:47:38.944Z,54.2
2017-10-21T06:48:40.755Z,53.9
2017-10-21T06:49:41.872Z,53.7
2017-10-21T06:50:44.039Z,53.8
2017-10-21T06:51:45.504Z,53.7
2017-10-21T06:52:47.329Z,53.9
2017-10-21T06:53:49.147Z,53.6
2017-10-21T06:54:50.261Z,53.9
2017-10-21T06:55:52.431Z,53.6
2017-10-21T06:56:54.250Z,53.9
2017-10-21T06:57:56.444Z,53.9
2017-10-21T06:58:58.262Z,53.9
2017-10-21T07:00:00.085Z,53.8
2017-10-21T07:01:01.202Z,53.9
2017-10-21T07:02:02.659Z,53.7
2017-10-21T07:03:04.828Z,54.3
2017-10-21T07:04:06.303Z,53.8
2017-10-21T07:05:08.466Z,54.2
2017-10-21T07:06:10.291Z,53.8
2017-10-21T07:07:12.456Z,53.7
2017-10-21T07:08:14.274Z,53.7
2017-10-21T07:09:16.464Z,53.9
2017-10-21T07:10:18.637Z,53.7
2017-10-21T07:11:20.433Z,53.9
2017-10-21T07:12:22.239Z,53.7
2017-10-21T07:13:24.408Z,53.9
2017-10-21T07:14:26.577Z,53.6
2017-10-21T07:15:28.398Z,53.9
2017-10-21T07:16:30.200Z,54
2017-10-21T07:17:31.682Z,53.9
2017-10-21T07:18:33.506Z,53.9
2017-10-21T07:19:34.963Z,53.9
2017-10-21T07:20:36.439Z,53.9
2017-10-21T07:21:38.243Z,53.8
2017-10-21T07:22:40.407Z,53.7
2017-10-21T07:23:42.209Z,53.6
2017-10-21T07:24:44.375Z,54
2017-10-21T07:25:45.860Z,53.7
2017-10-21T07:26:47.681Z,53.7
2017-10-21T07:27:49.485Z,53.7
2017-10-21T07:28:51.301Z,53.8
2017-10-21T07:29:53.123Z,53.6
2017-10-21T07:30:54.944Z,53.7
2017-10-21T07:31:57.110Z,53.8
2017-10-21T07:32:58.935Z,53.7
2017-10-21T07:34:01.097Z,53.8
2017-10-21T07:35:03.268Z,53.7
2017-10-21T07:36:05.429Z,53.8
2017-10-21T07:37:06.906Z,53.7
2017-10-21T07:38:09.072Z,53.9
2017-10-21T07:39:10.891Z,53.8
2017-10-21T07:40:12.710Z,53.7
2017-10-21T07:41:14.876Z,53.7
2017-10-21T07:42:16.357Z,53.7
2017-10-21T07:43:18.180Z,53.7
2017-10-21T07:44:20.008Z,53.6
2017-10-21T07:45:21.853Z,54
2017-10-21T07:46:23.674Z,54
2017-10-21T07:47:25.152Z,53.7
2017-10-21T07:48:27.324Z,54.1
2017-10-21T07:49:29.486Z,53.6
2017-10-21T07:50:31.312Z,53.9
2017-10-21T07:51:33.484Z,54
2017-10-21T07:52:34.601Z,53.6
2017-10-21T07:53:35.376Z,53.7
2017-10-21T07:54:36.513Z,53.6
2017-10-21T07:55:38.005Z,53.8
2017-10-21T07:56:39.821Z,53.9
2017-10-21T07:57:41.622Z,53.9
2017-10-21T07:58:42.740Z,53.7
2017-10-21T07:59:44.902Z,53.8
2017-10-21T08:00:46.364Z,53.9
2017-10-21T08:01:48.529Z,53.8
2017-10-21T08:02:50.696Z,53.7
2017-10-21T08:03:52.162Z,53.9
2017-10-21T08:04:53.619Z,53.8
2017-10-21T08:05:55.096Z,53.5
2017-10-21T08:06:56.894Z,53.8
2017-10-21T08:07:58.713Z,53.6
2017-10-21T08:09:00.170Z,53.7
2017-10-21T08:10:01.646Z,53.7
2017-10-21T08:11:03.143Z,53.7
2017-10-21T08:12:04.970Z,53.8
2017-10-21T08:13:06.447Z,53.9
2017-10-21T08:14:08.272Z,53.6
2017-10-21T08:15:09.046Z,53.9
2017-10-21T08:16:10.517Z,53.9
2017-10-21T08:17:12.684Z,53.6
2017-10-21T08:18:14.869Z,53.4
2017-10-21T08:19:16.349Z,53.5
2017-10-21T08:20:18.195Z,53.6
2017-10-21T08:21:19.661Z,54.2
2017-10-21T08:22:21.828Z,53.3
2017-10-21T08:23:22.979Z,53.6
2017-10-21T08:24:24.454Z,53.5
2017-10-21T08:25:25.588Z,53.3
2017-10-21T08:26:26.708Z,53.2
2017-10-21T08:27:28.529Z,53.2
2017-10-21T08:28:30.353Z,53.6
2017-10-21T08:29:31.832Z,53.2
2017-10-21T08:30:34.003Z,53.7
2017-10-21T08:31:36.222Z,53.3
2017-10-21T08:32:38.042Z,53.2
2017-10-21T08:33:39.520Z,53.3
2017-10-21T08:34:41.686Z,53.4
2017-10-21T08:35:43.170Z,53.8
2017-10-21T08:36:44.991Z,53.6
2017-10-21T08:37:46.792Z,53.5
2017-10-21T08:38:48.956Z,53.7
2017-10-21T08:39:50.781Z,53.3
2017-10-21T08:40:52.594Z,53.6
2017-10-21T08:41:54.763Z,53.2
2017-10-21T08:42:56.952Z,53.5
2017-10-21T08:43:58.754Z,53.4
2017-10-21T08:45:00.555Z,53.9
2017-10-21T08:46:02.383Z,53.5
2017-10-21T08:47:03.842Z,53.5
2017-10-21T08:48:05.669Z,53.4
2017-10-21T08:49:07.486Z,53.3
2017-10-21T08:50:08.596Z,53.2
2017-10-21T08:51:10.416Z,53.2
2017-10-21T08:52:12.584Z,53.9
2017-10-21T08:53:14.404Z,53.9
2017-10-21T08:54:16.232Z,54.2
2017-10-21T08:55:18.050Z,53.7
2017-10-21T08:56:19.606Z,53.4
2017-10-21T08:57:21.432Z,53.7
2017-10-21T08:58:22.913Z,53.4
2017-10-21T08:59:24.736Z,53.4
2017-10-21T09:00:26.560Z,53.8
2017-10-21T09:01:28.381Z,53.6
2017-10-21T09:02:30.203Z,53.8
2017-10-21T09:03:32.026Z,53.9
2017-10-21T09:04:33.833Z,53.9
2017-10-21T09:05:35.293Z,53.9
2017-10-21T09:06:37.457Z,53.9
2017-10-21T09:07:39.630Z,53.8
2017-10-21T09:08:41.455Z,53.8
2017-10-21T09:09:42.938Z,53.7
2017-10-21T09:10:44.050Z,53.8
2017-10-21T09:11:46.223Z,53.7
2017-10-21T09:12:48.397Z,53.7
2017-10-21T09:13:50.221Z,53.8
2017-10-21T09:14:51.698Z,53.8
2017-10-21T09:15:53.497Z,53.8
2017-10-21T09:16:55.028Z,53.9
2017-10-21T09:17:56.872Z,53.9
2017-10-21T09:18:59.041Z,53.8
2017-10-21T09:20:01.204Z,53.9
2017-10-21T09:21:03.005Z,53.8
2017-10-21T09:22:04.484Z,53.9
2017-10-21T09:23:06.656Z,53.8
2017-10-21T09:24:08.133Z,53.8
2017-10-21T09:25:09.612Z,54.2
2017-10-21T09:26:11.775Z,53.9
2017-10-21T09:27:13.704Z,54.2
2017-10-21T09:28:15.868Z,53.9
2017-10-21T09:29:17.693Z,53.9
2017-10-21T09:30:19.515Z,53.7
2017-10-21T09:31:21.682Z,53.8
2017-10-21T09:32:23.142Z,54.1
2017-10-21T09:33:24.966Z,54
2017-10-21T09:34:26.789Z,53.9
2017-10-21T09:35:28.267Z,53.9
2017-10-21T09:36:30.119Z,54
2017-10-21T09:37:31.573Z,54.1
2017-10-21T09:38:33.398Z,54
2017-10-21T09:39:35.227Z,54
2017-10-21T09:40:37.049Z,54
2017-10-21T09:41:39.213Z,54
2017-10-21T09:42:41.378Z,53.9
2017-10-21T09:43:43.177Z,54.2
2017-10-21T09:44:44.980Z,53.8
2017-10-21T09:45:46.437Z,54.2
2017-10-21T09:46:48.258Z,54.5
2017-10-21T09:47:49.713Z,54
2017-10-21T09:48:51.171Z,54.1
2017-10-21T09:49:52.979Z,54
2017-10-21T09:50:55.149Z,54
2017-10-21T09:51:56.259Z,54.1
2017-10-21T09:52:58.082Z,54.4
2017-10-21T09:53:59.905Z,54.1
2017-10-21T09:55:01.724Z,54.1
2017-10-21T09:56:02.834Z,54.1
2017-10-21T09:57:05.005Z,54.1
2017-10-21T09:58:06.803Z,54.1
2017-10-21T09:59:08.605Z,54.1
2017-10-21T10:00:10.431Z,54.1
2017-10-21T10:01:12.598Z,54.5
2017-10-21T10:02:14.130Z,54.1
2017-10-21T10:03:16.301Z,54
2017-10-21T10:04:18.119Z,54.2
2017-10-21T10:05:19.947Z,54.1
2017-10-21T10:06:21.774Z,54.5
2017-10-21T10:07:23.248Z,54.3
2017-10-21T10:08:25.416Z,54.2
2017-10-21T10:09:27.581Z,54.1
2017-10-21T10:10:29.750Z,54.1
2017-10-21T10:11:31.209Z,54
2017-10-21T10:12:32.657Z,54.4
2017-10-21T10:13:34.478Z,54.1
2017-10-21T10:14:36.303Z,54.2
2017-10-21T10:15:38.129Z,54.1
2017-10-21T10:16:39.237Z,54.4
2017-10-21T10:17:40.354Z,54.5
2017-10-21T10:18:41.811Z,54.3
2017-10-21T10:19:43.609Z,54.8
2017-10-21T10:20:44.725Z,54.6
2017-10-21T10:21:46.204Z,54.5
2017-10-21T10:22:48.008Z,54.5
2017-10-21T10:23:49.483Z,54.6
2017-10-21T10:24:51.658Z,54.3
2017-10-21T10:25:53.133Z,54.4
2017-10-21T10:26:54.611Z,54.5
2017-10-21T10:27:56.432Z,54.5
2017-10-21T10:28:57.906Z,54.6
2017-10-21T10:29:59.025Z,54.5
2017-10-21T10:31:00.868Z,54.5
2017-10-21T10:32:01.988Z,54.6
2017-10-21T10:33:02.754Z,54.6
2017-10-21T10:34:04.216Z,54.5
2017-10-21T10:35:05.676Z,54.5
2017-10-21T10:36:07.496Z,54.5
2017-10-21T10:37:09.316Z,54.6
2017-10-21T10:38:11.479Z,54.3
2017-10-21T10:39:13.643Z,54.4
2017-10-21T10:40:15.812Z,54.4
2017-10-21T10:41:17.981Z,54.5
2017-10-21T10:42:20.144Z,54.5
2017-10-21T10:43:21.965Z,54.4
2017-10-21T10:44:24.135Z,54.7
2017-10-21T10:45:26.298Z,54.5
2017-10-21T10:46:27.756Z,54.6
2017-10-21T10:47:29.578Z,54.4
2017-10-21T10:48:31.036Z,54.5
2017-10-21T10:49:32.518Z,54.5
2017-10-21T10:50:34.318Z,54.3
2017-10-21T10:51:36.484Z,54.5
2017-10-21T10:52:38.285Z,54.5
2017-10-21T10:53:39.423Z,54.3
2017-10-21T10:54:41.591Z,54.3
2017-10-21T10:55:43.413Z,54.7
2017-10-21T10:56:44.884Z,54.5
2017-10-21T10:57:46.338Z,54.6
2017-10-21T10:58:48.144Z,54.7
2017-10-21T10:59:49.963Z,54.4
2017-10-21T11:00:51.784Z,54.4
2017-10-21T11:01:53.246Z,54.5
2017-10-21T11:02:54.729Z,54.6
2017-10-21T11:03:56.211Z,54.5
2017-10-21T11:04:57.321Z,54.7
2017-10-21T11:05:59.142Z,54.3
2017-10-21T11:07:00.616Z,54.3
2017-10-21T11:08:01.741Z,54.5
2017-10-21T11:09:03.564Z,54.7
2017-10-21T11:10:04.331Z,54.6
2017-10-21T11:11:06.159Z,54.6
2017-10-21T11:12:07.639Z,54.5
2017-10-21T11:13:09.102Z,54.6
2017-10-21T11:14:11.269Z,54.6
2017-10-21T11:15:13.070Z,55
2017-10-21T11:16:14.892Z,54.6
2017-10-21T11:17:17.068Z,54.6
2017-10-21T11:18:19.232Z,54.4
2017-10-21T11:19:21.051Z,54.6
2017-10-21T11:20:22.167Z,54.6
2017-10-21T11:21:23.621Z,54.5
2017-10-21T11:22:25.101Z,54.2
2017-10-21T11:23:27.278Z,54.5
2017-10-21T11:24:29.446Z,54.5
2017-10-21T11:25:30.928Z,54.4
2017-10-21T11:26:32.042Z,54.7
2017-10-21T11:27:34.225Z,54.6
2017-10-21T11:28:36.394Z,54.4
2017-10-21T11:29:38.201Z,54.3
2017-10-21T11:30:40.026Z,54.3
2017-10-21T11:31:41.487Z,54.1
2017-10-21T11:32:42.949Z,54.4
2017-10-21T11:33:44.771Z,54.7
2017-10-21T11:34:46.936Z,54.6
2017-10-21T11:35:49.101Z,54.5
2017-10-21T11:36:51.271Z,54.4
2017-10-21T11:37:52.750Z,54.8
2017-10-21T11:38:54.570Z,54.6
2017-10-21T11:39:56.396Z,55
2017-10-21T11:40:58.570Z,55
2017-10-21T11:42:00.390Z,55.1
2017-10-21T11:43:01.870Z,54.7
2017-10-21T11:44:03.347Z,55
2017-10-21T11:45:05.170Z,54.7
2017-10-21T11:46:07.338Z,54.8
2017-10-21T11:47:09.143Z,54.9
2017-10-21T11:48:11.312Z,55.1
2017-10-21T11:49:13.478Z,54.9
2017-10-21T11:50:15.285Z,54.6
2017-10-21T11:51:16.400Z,55
2017-10-21T11:52:18.227Z,54.7
2017-10-21T11:53:20.397Z,54.7
2017-10-21T11:54:22.217Z,54.8
2017-10-21T11:55:24.052Z,55.1
2017-10-21T11:56:25.880Z,54.8
2017-10-21T11:57:27.014Z,54.9
2017-10-21T11:58:28.821Z,55
2017-10-21T11:59:30.644Z,55.1
2017-10-21T12:00:32.106Z,54.7
2017-10-21T12:01:33.562Z,54.8
2017-10-21T12:02:35.736Z,54.8
2017-10-21T12:03:37.543Z,54.8
2017-10-21T12:04:39.716Z,54.9
2017-10-21T12:05:41.196Z,55.1
2017-10-21T12:06:42.657Z,55
2017-10-21T12:07:44.825Z,54.8
2017-10-21T12:08:45.962Z,54.7
2017-10-21T12:09:47.415Z,55.4
2017-10-21T12:10:49.583Z,54.9
2017-10-21T12:11:51.754Z,54.7
2017-10-21T12:12:53.572Z,54.9
2017-10-21T12:13:55.052Z,54.9
2017-10-21T12:14:56.876Z,54.9
2017-10-21T12:15:58.362Z,54.7
2017-10-21T12:16:59.474Z,54.8
2017-10-21T12:18:01.273Z,54.8
2017-10-21T12:19:03.443Z,54.7
2017-10-21T12:20:04.556Z,54.9
2017-10-21T12:21:06.378Z,54.8
2017-10-21T12:22:07.834Z,54.9
2017-10-21T12:23:09.658Z,55
2017-10-21T12:24:11.118Z,55
2017-10-21T12:25:12.939Z,55.1
2017-10-21T12:26:15.106Z,55.1
2017-10-21T12:27:16.589Z,55.1
2017-10-21T12:28:18.389Z,55.5
2017-10-21T12:29:19.867Z,55
2017-10-21T12:30:21.670Z,55
2017-10-21T12:31:23.472Z,55
2017-10-21T12:32:25.294Z,54.7
2017-10-21T12:33:27.116Z,55.3
2017-10-21T12:34:29.288Z,54.9
2017-10-21T12:35:31.112Z,55
2017-10-21T12:36:32.591Z,55.1
2017-10-21T12:37:34.807Z,55.3
2017-10-21T12:38:36.294Z,55.2
2017-10-21T12:39:37.427Z,55.3
2017-10-21T12:40:39.596Z,55.1
2017-10-21T12:41:41.763Z,55.1
2017-10-21T12:42:43.585Z,55
2017-10-21T12:43:45.410Z,55.2
2017-10-21T12:44:47.210Z,54.8
2017-10-21T12:45:49.060Z,55.2
2017-10-21T12:46:50.573Z,55.4
2017-10-21T12:47:52.389Z,55.3
2017-10-21T12:48:54.555Z,55.4
2017-10-21T12:49:56.376Z,55.2
2017-10-21T12:50:58.197Z,55.2
2017-10-21T12:51:59.312Z,55.1
2017-10-21T12:53:01.237Z,55.5
2017-10-21T12:54:03.402Z,55.3
2017-10-21T12:55:05.573Z,55.2
2017-10-21T12:56:07.429Z,55.3
2017-10-21T12:57:09.229Z,55.2
2017-10-21T12:58:10.716Z,55.2
2017-10-21T12:59:12.885Z,55.2
2017-10-21T13:00:14.707Z,55.2
2017-10-21T13:01:16.870Z,55.8
2017-10-21T13:02:18.348Z,55.1
2017-10-21T13:03:19.464Z,55.5
2017-10-21T13:04:20.944Z,55.5
2017-10-21T13:05:22.428Z,55.3
2017-10-21T13:06:23.906Z,55.4
2017-10-21T13:07:26.074Z,55.5
2017-10-21T13:08:27.895Z,55.5
2017-10-21T13:09:29.353Z,55.7
2017-10-21T13:10:30.810Z,55.6
2017-10-21T13:11:32.636Z,55.5
2017-10-21T13:12:34.088Z,55.5
2017-10-21T13:13:35.568Z,55.5
2017-10-21T13:14:37.369Z,55.5
2017-10-21T13:15:39.537Z,56
2017-10-21T13:16:40.652Z,55.7
2017-10-21T13:17:42.134Z,55.8
2017-10-21T13:18:43.584Z,55.7
2017-10-21T13:19:44.707Z,55.2
2017-10-21T13:20:46.874Z,55.3
2017-10-21T13:21:48.356Z,55.5
2017-10-21T13:22:50.158Z,55.2
2017-10-21T13:23:52.325Z,55.3
2017-10-21T13:24:54.129Z,55.5
2017-10-21T13:25:55.949Z,55.4
2017-10-21T13:26:57.064Z,55.5
2017-10-21T13:27:59.229Z,55.7
2017-10-21T13:29:01.397Z,55.7
2017-10-21T13:30:02.856Z,55.3
2017-10-21T13:31:03.972Z,55.7
2017-10-21T13:32:06.140Z,55.3
2017-10-21T13:33:07.962Z,55.5
2017-10-21T13:34:09.787Z,55.4
2017-10-21T13:35:10.901Z,55.5
2017-10-21T13:36:13.073Z,55.6
2017-10-21T13:37:14.901Z,55.6
2017-10-21T13:38:16.377Z,55.5
2017-10-21T13:39:17.865Z,55.5
2017-10-21T13:40:19.347Z,55.5
2017-10-21T13:41:20.825Z,55.2
2017-10-21T13:42:22.284Z,55.3
2017-10-21T13:43:24.460Z,55.5
2017-10-21T13:44:26.276Z,55.4
2017-10-21T13:45:28.449Z,55.4
2017-10-21T13:46:30.617Z,55.5
2017-10-21T13:47:32.444Z,55.7
2017-10-21T13:48:33.920Z,55.7